Wichita, KS (67205)

6:48 PM CST on December 21, 2014 (GMT -0600)
Shadow Lakes | Change Station
CLOSE
Current Station
Personal Weather Station
Location: Wichita, KS
Elevation: 1358 ft
Nearby Weather Stations

Elev 1358 ft 37.74 °N, 97.44 °W | Updated 19 seconds ago

Overcast
Overcast
43.5 °F
Feels Like 40 °F
N
6.0
Wind Variable Wind from ESE
Gusts 19.0 mph

Today
High -- | Low -- °F
--% Chance of Precip.
Yesterday
High -- | Low -- °F
Precip. -- in
7:41 AM 5:14 PM
Waning Crescent, 0% visible
Pressure 29.71 in
Visibility 3.0 miles
Clouds Overcast 600 ft
Windchill 40 °F
Dew Point 43 °F
Humidity 99%
Rainfall 0.02 in
Snow Depth Not available.
UV 0 out of 12
Pollen .10 out of 12
Air Quality Not available.
Flu Activity Not available.
METAR KICT 212353Z 17013G21KT 3SM -DZ BR OVC006 07/06 A2970 RMK AO2 SLP060 P0000 60004 T00720056 10078 20061 58021 $

More Conditions Fewer Conditions

Pressure 29.71 in
Visibility 3.0 miles
Clouds Overcast 600 ft
Windchill 40 °F
Dew Point 43 °F
Humidity 99%
Rainfall 0.02 in
Snow Depth Not available.
UV 0 out of 12
Pollen .10 out of 12
Air Quality Not available.
Flu Activity Not available.
METAR KICT 212353Z 17013G21KT 3SM -DZ BR OVC006 07/06 A2970 RMK AO2 SLP060 P0000 60004 T00720056 10078 20061 58021 $

More Conditions Fewer Conditions

10-Day Weather Forecast

Almanac

Astronomy

Dec. 21, 2014 Rise Set
Actual Time
Civil Twilight
Nautical Twilight
Astronomical Twilight
Moon
Length of Visible Light
Length of Day
Tomorrow will be .
, % of the Moon is Illuminated

Today's Extremes

State Highs State Lows

Community

WunderPhotos

Upload Photos

1,779,509 photos uploaded!

WunderBlogs® & News

Nearby

Air Quality

  Air Quality AQ Index Pollutant
Not available.

Snow Depth

Station Depth Elevation

Earthquake Activity

City Distance Mag. Time & Date
Minimum magnitude displayed is 2.5.

Coastal Water Temperatures

Place Temperature

Nearby Weather Stations